Moss Point, Mississippi
Current Conditions -  °F | °C
As of 6:53 PM on Saturday 22 Nov 2014 (Local Time) from KPQL Reporting Station
Overcast Overcast  
Wind Chill: 62°   Ceiling: 800
Heat Index: 62°   Visibility: 10mi
Dew Point: 59°   Wind: 7mph
Humidity: 90%   Direction: 90°E
Pressure: 30.06"   Gusts: NA
Location:  30.4°N, 88.54°W
Report Text: KPQL 230053Z AUTO 09006KT 10SM OVC008 17/15 A3006 RMK AO2 SLP180 T01670150 TSNO
Loading
Personal Weather Stations






























Interactive Weather Map New forecast layout! Learn more

10-Day Weather Forecast

Advertisements
Track Severe Weather on mobile